createdAt,value
2022-09-27T00:01:01.317Z,9.70
2022-09-27T00:03:30.142Z,11.00
2022-09-27T00:06:08.295Z,9.80
2022-09-27T00:08:38.179Z,11.50
2022-09-27T00:11:13.625Z,11.30
2022-09-27T00:13:41.907Z,9.10
2022-09-27T00:16:11.394Z,11.00
2022-09-27T00:18:39.567Z,11.40
2022-09-27T00:21:10.110Z,9.20
2022-09-27T00:23:38.690Z,9.60
2022-09-27T00:26:09.996Z,9.10
2022-09-27T00:28:38.041Z,9.00
2022-09-27T00:31:12.351Z,11.60
2022-09-27T00:33:40.909Z,10.40
2022-09-27T00:38:39.667Z,10.70
2022-09-27T00:41:14.595Z,9.00
2022-09-27T00:43:50.051Z,9.30
2022-09-27T00:46:27.486Z,11.70
2022-09-27T00:49:06.667Z,10.20
2022-09-27T00:51:37.478Z,10.50
2022-09-27T00:54:09.856Z,9.30
2022-09-27T00:56:40.062Z,9.00
2022-09-27T00:59:15.365Z,9.00
2022-09-27T01:01:44.075Z,11.50
2022-09-27T01:04:15.135Z,10.90
2022-09-27T01:06:43.138Z,9.80
2022-09-27T01:09:13.101Z,9.20
2022-09-27T01:11:49.422Z,11.20
2022-09-27T01:14:38.977Z,11.30
2022-09-27T01:17:23.554Z,8.80
2022-09-27T01:20:25.196Z,9.10
2022-09-27T01:23:15.909Z,9.90
2022-09-27T01:26:01.703Z,9.00
2022-09-27T01:28:47.406Z,9.00
2022-09-27T01:31:25.540Z,10.50
2022-09-27T01:34:04.633Z,11.20
2022-09-27T01:36:48.527Z,9.10
2022-09-27T01:39:33.669Z,9.40
2022-09-27T01:42:28.096Z,9.10
2022-09-27T01:45:06.858Z,10.20
2022-09-27T01:47:50.658Z,9.40
2022-09-27T01:50:47.104Z,9.60
2022-09-27T01:53:22.660Z,11.70
2022-09-27T01:56:19.279Z,9.00
2022-09-27T01:58:59.389Z,11.60
2022-09-27T02:01:31.055Z,10.10
2022-09-27T02:04:02.704Z,11.30
2022-09-27T02:06:53.977Z,9.10
2022-09-27T02:09:34.388Z,10.90
2022-09-27T02:12:24.232Z,11.60
2022-09-27T02:14:57.740Z,10.30
2022-09-27T02:17:38.802Z,9.10
2022-09-27T02:20:16.643Z,9.90
2022-09-27T02:22:57.958Z,10.70
2022-09-27T02:25:33.952Z,10.60
2022-09-27T02:28:12.401Z,10.10
2022-09-27T02:30:41.405Z,9.10
2022-09-27T02:33:32.758Z,10.00
2022-09-27T02:36:03.227Z,10.30
2022-09-27T02:38:32.024Z,8.90
2022-09-27T02:41:01.665Z,8.90
2022-09-27T02:43:33.423Z,10.10
2022-09-27T02:46:21.917Z,10.40
2022-09-27T02:49:05.430Z,8.90
2022-09-27T02:51:48.728Z,8.90
2022-09-27T02:54:26.187Z,10.80
2022-09-27T02:57:34.279Z,8.90
2022-09-27T03:00:33.406Z,8.70
2022-09-27T03:03:34.881Z,9.90
2022-09-27T03:06:07.692Z,9.90
2022-09-27T03:08:38.983Z,8.50
2022-09-27T03:11:08.524Z,10.90
2022-09-27T03:14:01.377Z,10.30
2022-09-27T03:16:27.801Z,10.50
2022-09-27T03:19:11.231Z,9.30
2022-09-27T03:21:57.690Z,8.40
2022-09-27T03:24:27.661Z,8.70
2022-09-27T03:26:55.784Z,10.00
2022-09-27T03:32:00.565Z,10.90
2022-09-27T03:34:46.316Z,9.10
2022-09-27T03:37:14.402Z,9.00
2022-09-27T03:39:43.696Z,10.70
2022-09-27T03:42:11.837Z,11.40
2022-09-27T03:47:13.834Z,9.30
2022-09-27T03:49:41.892Z,9.20
2022-09-27T03:52:09.918Z,8.90
2022-09-27T03:54:38.472Z,9.20
2022-09-27T03:57:07.887Z,11.20
2022-09-27T03:59:36.676Z,11.00
2022-09-27T04:02:23.526Z,10.90
2022-09-27T04:05:10.577Z,10.70
2022-09-27T04:07:39.370Z,8.70
2022-09-27T04:10:08.719Z,8.70
2022-09-27T04:12:40.430Z,8.20
2022-09-27T04:15:10.145Z,8.30
2022-09-27T04:18:01.344Z,8.90
2022-09-27T04:20:37.067Z,10.90
2022-09-27T04:23:09.088Z,9.30
2022-09-27T04:25:40.433Z,8.50
2022-09-27T04:28:22.663Z,9.70
2022-09-27T04:30:51.433Z,10.00
2022-09-27T04:33:35.951Z,8.80
2022-09-27T04:36:26.073Z,8.60
2022-09-27T04:39:04.881Z,10.10
2022-09-27T04:41:35.655Z,10.70
2022-09-27T04:44:06.529Z,8.30
2022-09-27T04:46:35.125Z,8.20
2022-09-27T04:49:03.928Z,9.00
2022-09-27T04:51:34.515Z,10.20
2022-09-27T04:54:02.956Z,8.80
2022-09-27T04:56:34.012Z,9.90
2022-09-27T04:59:09.802Z,8.00
2022-09-27T05:01:38.901Z,9.40
2022-09-27T05:04:16.876Z,9.90
2022-09-27T05:06:53.629Z,10.70
2022-09-27T05:09:30.034Z,8.40
2022-09-27T05:14:54.445Z,9.70
2022-09-27T05:17:45.552Z,8.20
2022-09-27T05:20:19.931Z,9.40
2022-09-27T05:23:06.826Z,9.40
2022-09-27T05:25:35.661Z,8.00
2022-09-27T05:30:35.540Z,8.20
2022-09-27T05:35:53.988Z,8.10
2022-09-27T05:38:25.796Z,9.20
2022-09-27T05:40:57.283Z,8.00
2022-09-27T05:43:26.216Z,9.70
2022-09-27T05:45:56.169Z,7.90
2022-09-27T05:48:24.764Z,9.20
2022-09-27T05:51:01.704Z,10.20
2022-09-27T05:53:32.460Z,10.40
2022-09-27T05:56:04.008Z,8.90
2022-09-27T05:58:47.789Z,10.50
2022-09-27T06:01:20.344Z,9.10
2022-09-27T06:04:11.086Z,10.80
2022-09-27T06:07:08.460Z,9.10
2022-09-27T06:09:36.568Z,9.40
2022-09-27T06:12:04.914Z,8.90
2022-09-27T06:17:15.895Z,9.20
2022-09-27T06:22:16.709Z,10.80
2022-09-27T06:30:01.192Z,10.70
2022-09-27T06:32:49.204Z,10.00
2022-09-27T06:35:31.286Z,10.50
2022-09-27T06:43:17.293Z,8.50
2022-09-27T06:46:06.445Z,7.50
2022-09-27T06:53:52.210Z,8.40
2022-09-27T06:56:20.794Z,8.20
2022-09-27T07:01:47.222Z,7.90
2022-09-27T07:04:52.756Z,10.10
2022-09-27T07:07:40.059Z,8.00
2022-09-27T07:10:10.133Z,9.20
2022-09-27T07:12:39.492Z,9.60
2022-09-27T07:15:08.531Z,8.20
2022-09-27T07:20:08.552Z,9.90
2022-09-27T07:22:42.368Z,10.80
2022-09-27T07:25:11.406Z,8.30
2022-09-27T07:27:41.776Z,8.50
2022-09-27T07:30:13.722Z,10.80
2022-09-27T07:32:42.353Z,8.70
2022-09-27T07:35:15.075Z,10.50
2022-09-27T07:37:45.339Z,9.90
2022-09-27T07:40:14.667Z,8.90
2022-09-27T07:42:43.278Z,10.10
2022-09-27T07:45:13.735Z,8.50
2022-09-27T07:47:51.651Z,11.50
2022-09-27T07:50:31.788Z,9.20
2022-09-27T07:53:06.004Z,9.80
2022-09-27T07:55:53.630Z,9.00
2022-09-27T08:01:00.853Z,9.10
2022-09-27T08:03:29.243Z,11.50
2022-09-27T08:06:02.982Z,9.40
2022-09-27T08:08:31.439Z,9.10
2022-09-27T08:11:00.611Z,9.80
2022-09-27T08:13:29.559Z,9.50
2022-09-27T08:16:03.679Z,11.30
2022-09-27T08:18:42.253Z,10.80
2022-09-27T08:21:34.920Z,9.90
2022-09-27T08:24:22.958Z,11.70
2022-09-27T08:27:00.575Z,10.60
2022-09-27T08:29:42.645Z,12.10
2022-09-27T08:32:11.446Z,10.30
2022-09-27T08:34:39.801Z,9.80
2022-09-27T08:37:09.300Z,12.90
2022-09-27T08:42:22.282Z,13.10
2022-09-27T08:45:03.649Z,10.30
2022-09-27T08:47:40.119Z,10.70
2022-09-27T08:50:23.665Z,11.40
2022-09-27T08:52:58.493Z,12.60
2022-09-27T08:55:37.352Z,11.10
2022-09-27T08:58:18.405Z,13.30
2022-09-27T09:00:46.959Z,11.40
2022-09-27T09:03:21.886Z,11.00
2022-09-27T09:06:05.277Z,11.50
2022-09-27T09:08:50.723Z,12.60
2022-09-27T09:11:50.188Z,11.80
2022-09-27T09:14:54.098Z,13.20
2022-09-27T09:17:43.664Z,12.00
2022-09-27T09:20:58.397Z,15.10
2022-09-27T09:23:54.345Z,13.90
2022-09-27T09:26:33.782Z,12.30
2022-09-27T09:29:37.508Z,13.70
2022-09-27T09:32:20.452Z,13.60
2022-09-27T09:34:54.849Z,15.00
2022-09-27T09:37:32.775Z,14.90
2022-09-27T09:40:09.331Z,13.00
2022-09-27T09:42:44.447Z,12.90
2022-09-27T09:45:20.128Z,15.30
2022-09-27T09:47:58.479Z,12.80
2022-09-27T09:50:31.336Z,12.40
2022-09-27T09:53:05.774Z,12.30
2022-09-27T09:55:37.378Z,13.90
2022-09-27T09:58:22.163Z,13.60
2022-09-27T10:01:00.466Z,13.20
2022-09-27T10:03:29.062Z,14.50
2022-09-27T10:05:57.283Z,14.20
2022-09-27T10:08:25.701Z,12.10
2022-09-27T10:11:24.186Z,12.20
2022-09-27T10:14:11.998Z,12.10
2022-09-27T10:16:43.194Z,12.30
2022-09-27T10:19:13.243Z,13.20
2022-09-27T10:21:45.195Z,16.00
2022-09-27T10:24:18.690Z,13.10
2022-09-27T10:27:06.748Z,12.60
2022-09-27T10:29:38.975Z,13.80
2022-09-27T10:32:27.402Z,12.40
2022-09-27T10:35:33.497Z,13.80
2022-09-27T10:38:26.556Z,13.30
2022-09-27T10:41:22.986Z,13.70
2022-09-27T10:43:53.043Z,11.70
2022-09-27T10:46:34.329Z,10.50
2022-09-27T10:49:23.950Z,8.90
2022-09-27T10:51:56.581Z,9.00
2022-09-27T10:54:28.555Z,8.30
2022-09-27T10:57:01.449Z,8.10
2022-09-27T10:59:34.813Z,10.20
2022-09-27T11:02:03.750Z,9.10
2022-09-27T11:04:40.969Z,9.70
2022-09-27T11:07:16.370Z,8.90
2022-09-27T11:09:55.030Z,8.40
2022-09-27T11:15:03.604Z,9.00
2022-09-27T11:17:46.751Z,10.10
2022-09-27T11:20:29.591Z,9.00
2022-09-27T11:23:27.906Z,11.10
2022-09-27T11:26:18.596Z,12.80
2022-09-27T11:29:01.896Z,14.80
2022-09-27T11:32:17.290Z,12.90
2022-09-27T11:35:20.231Z,12.20
2022-09-27T11:38:01.207Z,11.60
2022-09-27T11:40:38.537Z,12.60
2022-09-27T11:43:30.962Z,12.30
2022-09-27T11:46:18.170Z,11.30
2022-09-27T11:49:28.267Z,12.10
2022-09-27T11:52:40.241Z,14.00
2022-09-27T11:55:28.041Z,16.40
2022-09-27T11:58:06.344Z,14.80
2022-09-27T12:00:52.826Z,17.10
2022-09-27T12:03:54.782Z,18.00
2022-09-27T12:06:36.535Z,15.80
2022-09-27T12:09:09.432Z,14.40
2022-09-27T12:11:44.277Z,15.80
2022-09-27T12:14:26.550Z,15.40
2022-09-27T12:16:58.437Z,15.20
2022-09-27T12:19:35.920Z,15.30
2022-09-27T12:22:34.715Z,16.60
2022-09-27T12:25:20.333Z,14.10
2022-09-27T12:28:05.251Z,13.50
2022-09-27T12:30:38.737Z,13.40
2022-09-27T12:33:18.832Z,12.90
2022-09-27T12:35:52.601Z,13.20
2022-09-27T12:38:28.478Z,14.70
2022-09-27T12:40:59.531Z,14.30
2022-09-27T12:43:44.824Z,15.70
2022-09-27T12:46:56.066Z,16.40
2022-09-27T12:49:35.449Z,16.80
2022-09-27T12:52:09.939Z,16.90
2022-09-27T12:55:28.516Z,16.20
2022-09-27T12:58:44.564Z,16.00
2022-09-27T13:01:29.763Z,13.20
2022-09-27T13:04:25.620Z,12.30
2022-09-27T13:07:24.900Z,11.80
2022-09-27T13:10:36.377Z,11.30
2022-09-27T13:13:16.695Z,11.30
2022-09-27T13:15:46.903Z,12.00
2022-09-27T13:18:49.494Z,10.80
2022-09-27T13:21:59.465Z,11.60
2022-09-27T13:24:47.046Z,13.50
2022-09-27T13:27:40.936Z,14.10
2022-09-27T13:30:46.124Z,12.60
2022-09-27T13:33:43.600Z,11.90
2022-09-27T13:36:33.177Z,12.70
2022-09-27T13:39:22.506Z,15.50
2022-09-27T13:42:36.739Z,12.90
2022-09-27T13:45:23.131Z,12.60
2022-09-27T13:50:39.115Z,12.20
2022-09-27T13:53:28.414Z,11.70
2022-09-27T13:55:58.363Z,11.10
2022-09-27T13:58:52.476Z,13.30
2022-09-27T14:01:55.185Z,11.90
2022-09-27T14:04:36.914Z,12.00
2022-09-27T14:07:06.675Z,11.60
2022-09-27T14:09:39.694Z,13.20
2022-09-27T14:12:21.776Z,12.40
2022-09-27T14:14:52.674Z,11.90
2022-09-27T14:17:23.629Z,13.10
2022-09-27T14:19:54.043Z,12.80
2022-09-27T14:22:25.084Z,13.90
2022-09-27T14:24:59.768Z,13.70
2022-09-27T14:27:40.569Z,14.80
2022-09-27T14:30:21.697Z,12.30
2022-09-27T14:33:02.340Z,12.70
2022-09-27T14:36:08.133Z,12.00
2022-09-27T14:38:38.912Z,13.50
2022-09-27T14:41:28.501Z,11.30
2022-09-27T14:43:56.589Z,12.90
2022-09-27T14:46:29.439Z,12.00
2022-09-27T14:48:59.306Z,12.40
2022-09-27T14:51:30.544Z,12.90
2022-09-27T14:54:04.282Z,11.70
2022-09-27T14:56:37.474Z,12.00
2022-09-27T14:59:14.710Z,14.20
2022-09-27T15:01:51.351Z,12.30
2022-09-27T15:04:23.137Z,11.70
2022-09-27T15:06:52.443Z,11.80
2022-09-27T15:09:21.601Z,14.20
2022-09-27T15:11:55.702Z,11.60
2022-09-27T15:14:26.059Z,13.10
2022-09-27T15:16:54.938Z,11.20
2022-09-27T15:19:29.095Z,11.30
2022-09-27T15:22:18.109Z,10.80
2022-09-27T15:24:48.145Z,10.70
2022-09-27T15:27:18.633Z,11.20
2022-09-27T15:29:51.294Z,11.10
2022-09-27T15:32:22.704Z,10.60
2022-09-27T15:34:52.540Z,12.00
2022-09-27T15:37:29.157Z,11.20
2022-09-27T15:40:09.781Z,9.60
2022-09-27T15:42:57.765Z,8.80
2022-09-27T15:45:30.426Z,10.90
2022-09-27T15:48:14.434Z,10.00
2022-09-27T15:50:44.506Z,8.80
2022-09-27T15:55:43.800Z,10.80
2022-09-27T15:58:17.534Z,10.80
2022-09-27T16:00:57.173Z,9.40
2022-09-27T16:03:27.843Z,10.90
2022-09-27T16:05:59.809Z,11.40
2022-09-27T16:08:29.448Z,8.80
2022-09-27T16:10:59.929Z,8.40
2022-09-27T16:13:32.804Z,9.10
2022-09-27T16:16:02.812Z,11.40
2022-09-27T16:18:31.603Z,8.80
2022-09-27T16:21:01.124Z,9.50
2022-09-27T16:23:29.181Z,9.80
2022-09-27T16:25:57.204Z,10.00
2022-09-27T16:28:25.234Z,9.40
2022-09-27T16:30:53.289Z,10.60
2022-09-27T16:33:21.507Z,9.30
2022-09-27T16:35:50.202Z,8.70
2022-09-27T16:38:19.563Z,9.30
2022-09-27T16:40:47.725Z,9.90
2022-09-27T16:50:58.947Z,9.60
2022-09-27T16:53:28.488Z,9.60
2022-09-27T16:56:00.378Z,9.30
2022-09-27T16:58:30.848Z,9.50
2022-09-27T17:00:59.864Z,8.50
2022-09-27T17:06:02.487Z,9.10
2022-09-27T17:08:31.970Z,9.10
2022-09-27T17:11:00.172Z,8.30
2022-09-27T17:13:28.363Z,8.40
2022-09-27T17:15:56.655Z,9.70
2022-09-27T17:20:53.150Z,9.30
2022-09-27T17:23:21.154Z,8.50
2022-09-27T17:25:50.586Z,8.60
2022-09-27T17:28:18.633Z,9.70
2022-09-27T17:33:15.046Z,8.70
2022-09-27T17:35:44.337Z,9.10
2022-09-27T17:40:40.927Z,8.90
2022-09-27T17:43:10.636Z,8.90
2022-09-27T17:45:38.652Z,8.40
2022-09-27T17:48:24.195Z,8.50
2022-09-27T17:50:52.219Z,9.10
2022-09-27T17:53:20.296Z,9.70
2022-09-27T17:58:18.076Z,9.20
2022-09-27T18:00:46.683Z,9.20
2022-09-27T18:03:15.306Z,8.40
2022-09-27T18:05:43.844Z,7.70
2022-09-27T18:08:12.355Z,9.80
2022-09-27T18:13:08.791Z,8.00
2022-09-27T18:15:39.119Z,10.80
2022-09-27T18:18:07.172Z,8.10
2022-09-27T18:20:36.154Z,9.30
2022-09-27T18:23:04.197Z,8.00
2022-09-27T18:25:32.748Z,10.10
2022-09-27T18:28:01.376Z,10.50
2022-09-27T18:30:29.366Z,8.40
2022-09-27T18:32:58.691Z,9.50
2022-09-27T18:35:28.727Z,9.50
2022-09-27T18:37:56.731Z,7.00
2022-09-27T18:43:13.749Z,9.50
2022-09-27T18:45:42.070Z,9.00
2022-09-27T18:48:11.504Z,7.90
2022-09-27T18:50:39.466Z,8.40
2022-09-27T18:53:08.320Z,9.50
2022-09-27T18:55:38.356Z,7.70
2022-09-27T18:58:06.528Z,7.70
2022-09-27T19:00:34.600Z,8.20
2022-09-27T19:03:02.745Z,8.10
2022-09-27T19:05:32.068Z,6.20
2022-09-27T19:08:00.069Z,8.50
2022-09-27T19:10:28.144Z,6.00
2022-09-27T19:12:57.198Z,7.00
2022-09-27T19:15:25.594Z,6.10
2022-09-27T19:17:53.975Z,6.50
2022-09-27T19:20:22.034Z,9.30
2022-09-27T19:22:51.535Z,6.20
2022-09-27T19:25:19.810Z,8.40
2022-09-27T19:27:47.864Z,6.20
2022-09-27T19:30:16.172Z,5.80
2022-09-27T19:32:45.533Z,6.00
2022-09-27T19:35:13.652Z,6.30
2022-09-27T19:37:42.285Z,9.30
2022-09-27T19:40:11.817Z,9.10
2022-09-27T19:42:39.826Z,9.20
2022-09-27T19:45:11.708Z,9.20
2022-09-27T19:47:39.921Z,8.90
2022-09-27T19:50:09.366Z,7.50
2022-09-27T19:52:38.638Z,9.40
2022-09-27T19:55:08.541Z,6.10
2022-09-27T19:57:37.937Z,8.90
2022-09-27T20:00:07.534Z,7.70
2022-09-27T20:02:35.694Z,9.40
2022-09-27T20:05:04.607Z,9.60
2022-09-27T20:07:34.928Z,8.30
2022-09-27T20:10:03.023Z,9.40
2022-09-27T20:12:31.100Z,8.30
2022-09-27T20:15:00.411Z,7.00
2022-09-27T20:17:32.418Z,9.00
2022-09-27T20:20:00.547Z,9.30
2022-09-27T20:22:28.558Z,8.90
2022-09-27T20:24:56.531Z,7.10
2022-09-27T20:32:27.882Z,6.90
2022-09-27T20:34:56.430Z,7.60
2022-09-27T20:39:54.097Z,5.80
2022-09-27T20:42:22.103Z,5.60
2022-09-27T20:44:54.138Z,7.80
2022-09-27T20:47:24.039Z,5.60
2022-09-27T20:49:52.048Z,8.40
2022-09-27T20:54:48.666Z,5.30
2022-09-27T20:57:16.679Z,7.80
2022-09-27T20:59:44.641Z,5.00
2022-09-27T21:02:12.691Z,6.00
2022-09-27T21:04:42.126Z,6.50
2022-09-27T21:07:10.131Z,5.30
2022-09-27T21:09:38.790Z,8.30
2022-09-27T21:12:07.132Z,4.80
2022-09-27T21:14:35.370Z,7.30
2022-09-27T21:17:03.460Z,7.40
2022-09-27T21:19:31.616Z,6.60
2022-09-27T21:22:00.969Z,7.90
2022-09-27T21:24:28.942Z,7.00
2022-09-27T21:26:57.676Z,8.00
2022-09-27T21:29:25.670Z,7.80
2022-09-27T21:31:53.806Z,8.10
2022-09-27T21:34:21.852Z,7.60
2022-09-27T21:36:50.143Z,5.80
2022-09-27T21:39:19.474Z,6.30
2022-09-27T21:41:47.474Z,7.20
2022-09-27T21:44:15.711Z,7.70
2022-09-27T21:46:44.095Z,5.30
2022-09-27T21:49:12.161Z,7.40
2022-09-27T21:51:42.206Z,6.50
2022-09-27T21:54:15.037Z,5.30
2022-09-27T21:56:45.437Z,6.20
2022-09-27T21:59:16.015Z,5.50
2022-09-27T22:01:45.484Z,8.20
2022-09-27T22:06:42.525Z,6.40
2022-09-27T22:09:15.818Z,8.00
2022-09-27T22:11:47.616Z,8.20
2022-09-27T22:14:17.275Z,7.90
2022-09-27T22:16:45.331Z,7.20
2022-09-27T22:19:15.586Z,5.70
2022-09-27T22:21:44.124Z,9.00
2022-09-27T22:24:15.112Z,6.10
2022-09-27T22:26:47.914Z,6.30
2022-09-27T22:29:16.384Z,9.10
2022-09-27T22:31:44.773Z,8.00
2022-09-27T22:34:18.963Z,7.90
2022-09-27T22:36:47.542Z,8.40
2022-09-27T22:39:15.686Z,6.30
2022-09-27T22:41:45.190Z,6.30
2022-09-27T22:44:13.203Z,8.10
2022-09-27T22:46:41.454Z,7.30
2022-09-27T22:49:09.807Z,8.50
2022-09-27T22:51:37.975Z,6.10
2022-09-27T22:54:06.444Z,9.30
2022-09-27T22:56:34.450Z,6.40
2022-09-27T22:59:04.100Z,9.00
2022-09-27T23:01:32.427Z,7.40
2022-09-27T23:04:00.706Z,9.20
2022-09-27T23:06:28.850Z,6.30
2022-09-27T23:08:58.090Z,6.40
2022-09-27T23:11:26.115Z,6.80
2022-09-27T23:13:54.205Z,8.50
2022-09-27T23:16:25.209Z,6.20
2022-09-27T23:18:54.911Z,9.40
2022-09-27T23:23:56.159Z,7.60
2022-09-27T23:26:26.567Z,7.40
2022-09-27T23:28:55.192Z,7.10
2022-09-27T23:31:25.526Z,8.50
2022-09-27T23:33:54.736Z,6.00
2022-09-27T23:36:26.979Z,6.20
2022-09-27T23:38:55.994Z,7.50
2022-09-27T23:41:24.035Z,8.40
2022-09-27T23:43:53.299Z,6.70
2022-09-27T23:46:21.669Z,7.20
2022-09-27T23:48:51.152Z,7.60
2022-09-27T23:51:19.239Z,5.90
2022-09-27T23:53:47.275Z,9.20
2022-09-27T23:56:18.131Z,6.40
2022-09-27T23:58:47.119Z,7.60
